sensor_id;sensor_type;location;lat;lon;timestamp;P1;durP1;ratioP1;P2;durP2;ratioP2
42590;SDS011;28218;53.342;-6.216;2023-06-22T00:00:39;3.90;;;3.33;;
42590;SDS011;28218;53.342;-6.216;2023-06-22T00:03:09;4.82;;;3.25;;
42590;SDS011;28218;53.342;-6.216;2023-06-22T00:05:37;7.18;;;3.72;;
42590;SDS011;28218;53.342;-6.216;2023-06-22T00:08:06;5.00;;;3.40;;
42590;SDS011;28218;53.342;-6.216;2023-06-22T00:10:34;4.85;;;3.08;;
42590;SDS011;28218;53.342;-6.216;2023-06-22T00:13:02;12.23;;;2.35;;
42590;SDS011;28218;53.342;-6.216;2023-06-22T00:15:32;7.10;;;2.83;;
42590;SDS011;28218;53.342;-6.216;2023-06-22T00:18:00;4.93;;;2.03;;
42590;SDS011;28218;53.342;-6.216;2023-06-22T00:20:29;2.97;;;2.00;;
42590;SDS011;28218;53.342;-6.216;2023-06-22T00:22:59;6.53;;;1.88;;
42590;SDS011;28218;53.342;-6.216;2023-06-22T00:25:28;3.95;;;2.33;;
42590;SDS011;28218;53.342;-6.216;2023-06-22T00:27:56;2.63;;;1.90;;
42590;SDS011;28218;53.342;-6.216;2023-06-22T00:30:24;3.35;;;1.83;;
42590;SDS011;28218;53.342;-6.216;2023-06-22T00:32:55;4.40;;;1.77;;
42590;SDS011;28218;53.342;-6.216;2023-06-22T00:35:23;4.32;;;2.45;;
42590;SDS011;28218;53.342;-6.216;2023-06-22T00:37:55;5.75;;;2.40;;
42590;SDS011;28218;53.342;-6.216;2023-06-22T00:40:27;5.55;;;2.25;;
42590;SDS011;28218;53.342;-6.216;2023-06-22T00:42:56;5.97;;;3.28;;
42590;SDS011;28218;53.342;-6.216;2023-06-22T00:45:25;4.32;;;2.20;;
42590;SDS011;28218;53.342;-6.216;2023-06-22T00:47:56;8.35;;;1.80;;
42590;SDS011;28218;53.342;-6.216;2023-06-22T00:50:26;5.50;;;2.40;;
42590;SDS011;28218;53.342;-6.216;2023-06-22T00:53:01;6.00;;;2.17;;
42590;SDS011;28218;53.342;-6.216;2023-06-22T00:55:36;6.22;;;2.45;;
42590;SDS011;28218;53.342;-6.216;2023-06-22T00:58:05;5.00;;;2.38;;
42590;SDS011;28218;53.342;-6.216;2023-06-22T01:00:37;4.97;;;2.20;;
42590;SDS011;28218;53.342;-6.216;2023-06-22T01:03:08;4.13;;;2.47;;
42590;SDS011;28218;53.342;-6.216;2023-06-22T01:05:38;9.50;;;2.33;;
42590;SDS011;28218;53.342;-6.216;2023-06-22T01:08:16;5.63;;;3.25;;
42590;SDS011;28218;53.342;-6.216;2023-06-22T01:10:52;8.48;;;2.60;;
42590;SDS011;28218;53.342;-6.216;2023-06-22T01:13:28;4.00;;;2.40;;
42590;SDS011;28218;53.342;-6.216;2023-06-22T01:16:01;5.55;;;2.30;;
42590;SDS011;28218;53.342;-6.216;2023-06-22T01:18:32;6.07;;;2.73;;
42590;SDS011;28218;53.342;-6.216;2023-06-22T01:21:04;5.93;;;2.60;;
42590;SDS011;28218;53.342;-6.216;2023-06-22T01:23:42;20.60;;;11.82;;
42590;SDS011;28218;53.342;-6.216;2023-06-22T01:26:22;8.20;;;5.07;;
42590;SDS011;28218;53.342;-6.216;2023-06-22T01:29:00;9.13;;;4.55;;
42590;SDS011;28218;53.342;-6.216;2023-06-22T01:31:31;7.00;;;4.18;;
42590;SDS011;28218;53.342;-6.216;2023-06-22T01:34:03;7.95;;;4.28;;
42590;SDS011;28218;53.342;-6.216;2023-06-22T01:36:34;4.72;;;2.63;;
42590;SDS011;28218;53.342;-6.216;2023-06-22T01:39:03;3.85;;;2.67;;
42590;SDS011;28218;53.342;-6.216;2023-06-22T01:41:34;2.78;;;2.38;;
42590;SDS011;28218;53.342;-6.216;2023-06-22T01:44:06;3.47;;;2.60;;
42590;SDS011;28218;53.342;-6.216;2023-06-22T01:46:36;4.72;;;2.45;;
42590;SDS011;28218;53.342;-6.216;2023-06-22T01:49:06;3.65;;;2.80;;
42590;SDS011;28218;53.342;-6.216;2023-06-22T01:51:35;3.95;;;2.35;;
42590;SDS011;28218;53.342;-6.216;2023-06-22T01:54:05;7.20;;;2.40;;
42590;SDS011;28218;53.342;-6.216;2023-06-22T01:56:34;3.90;;;2.53;;
42590;SDS011;28218;53.342;-6.216;2023-06-22T01:59:07;9.57;;;2.95;;
42590;SDS011;28218;53.342;-6.216;2023-06-22T02:01:41;3.45;;;2.05;;
42590;SDS011;28218;53.342;-6.216;2023-06-22T02:04:13;6.05;;;2.95;;
42590;SDS011;28218;53.342;-6.216;2023-06-22T02:06:47;5.38;;;3.40;;
42590;SDS011;28218;53.342;-6.216;2023-06-22T02:09:22;3.67;;;2.60;;
42590;SDS011;28218;53.342;-6.216;2023-06-22T02:11:53;7.63;;;2.55;;
42590;SDS011;28218;53.342;-6.216;2023-06-22T02:14:25;4.18;;;2.33;;
42590;SDS011;28218;53.342;-6.216;2023-06-22T02:16:55;5.30;;;2.78;;
42590;SDS011;28218;53.342;-6.216;2023-06-22T02:19:26;3.30;;;2.30;;
42590;SDS011;28218;53.342;-6.216;2023-06-22T02:21:59;6.15;;;2.65;;
42590;SDS011;28218;53.342;-6.216;2023-06-22T02:24:28;4.10;;;2.50;;
42590;SDS011;28218;53.342;-6.216;2023-06-22T02:27:00;4.22;;;2.42;;
42590;SDS011;28218;53.342;-6.216;2023-06-22T02:29:30;6.28;;;2.72;;
42590;SDS011;28218;53.342;-6.216;2023-06-22T02:31:59;4.07;;;2.78;;
42590;SDS011;28218;53.342;-6.216;2023-06-22T02:34:28;3.72;;;2.50;;
42590;SDS011;28218;53.342;-6.216;2023-06-22T02:36:56;3.72;;;2.65;;
42590;SDS011;28218;53.342;-6.216;2023-06-22T02:39:29;3.60;;;2.38;;
42590;SDS011;28218;53.342;-6.216;2023-06-22T02:41:57;4.97;;;2.60;;
42590;SDS011;28218;53.342;-6.216;2023-06-22T02:44:25;5.00;;;2.80;;
42590;SDS011;28218;53.342;-6.216;2023-06-22T02:46:55;5.18;;;2.63;;
42590;SDS011;28218;53.342;-6.216;2023-06-22T02:49:23;4.10;;;2.65;;
42590;SDS011;28218;53.342;-6.216;2023-06-22T02:51:52;3.53;;;2.35;;
42590;SDS011;28218;53.342;-6.216;2023-06-22T02:54:21;3.67;;;2.45;;
42590;SDS011;28218;53.342;-6.216;2023-06-22T02:56:49;3.55;;;2.67;;
42590;SDS011;28218;53.342;-6.216;2023-06-22T02:59:18;5.15;;;2.50;;
42590;SDS011;28218;53.342;-6.216;2023-06-22T03:01:50;4.20;;;2.92;;
42590;SDS011;28218;53.342;-6.216;2023-06-22T03:04:20;4.72;;;2.83;;
42590;SDS011;28218;53.342;-6.216;2023-06-22T03:06:48;9.05;;;2.95;;
42590;SDS011;28218;53.342;-6.216;2023-06-22T03:09:18;4.82;;;2.75;;
42590;SDS011;28218;53.342;-6.216;2023-06-22T03:11:46;4.25;;;2.97;;
42590;SDS011;28218;53.342;-6.216;2023-06-22T03:14:14;4.38;;;3.13;;
42590;SDS011;28218;53.342;-6.216;2023-06-22T03:16:42;7.65;;;3.72;;
42590;SDS011;28218;53.342;-6.216;2023-06-22T03:19:10;5.95;;;3.63;;
42590;SDS011;28218;53.342;-6.216;2023-06-22T03:21:40;7.53;;;4.35;;
42590;SDS011;28218;53.342;-6.216;2023-06-22T03:24:08;5.35;;;4.05;;
42590;SDS011;28218;53.342;-6.216;2023-06-22T03:26:37;5.20;;;3.17;;
42590;SDS011;28218;53.342;-6.216;2023-06-22T03:29:05;6.30;;;3.40;;
42590;SDS011;28218;53.342;-6.216;2023-06-22T03:31:33;7.18;;;3.22;;
42590;SDS011;28218;53.342;-6.216;2023-06-22T03:34:01;3.53;;;3.03;;
42590;SDS011;28218;53.342;-6.216;2023-06-22T03:36:30;5.57;;;3.67;;
42590;SDS011;28218;53.342;-6.216;2023-06-22T03:38:59;9.77;;;3.35;;
42590;SDS011;28218;53.342;-6.216;2023-06-22T03:41:28;5.82;;;4.22;;
42590;SDS011;28218;53.342;-6.216;2023-06-22T03:43:56;4.13;;;3.67;;
42590;SDS011;28218;53.342;-6.216;2023-06-22T03:46:24;5.63;;;3.92;;
42590;SDS011;28218;53.342;-6.216;2023-06-22T03:48:53;5.38;;;4.00;;
42590;SDS011;28218;53.342;-6.216;2023-06-22T03:51:21;4.32;;;3.88;;
42590;SDS011;28218;53.342;-6.216;2023-06-22T03:53:49;5.88;;;3.80;;
42590;SDS011;28218;53.342;-6.216;2023-06-22T03:56:19;8.25;;;3.63;;
42590;SDS011;28218;53.342;-6.216;2023-06-22T03:58:47;6.20;;;3.80;;
42590;SDS011;28218;53.342;-6.216;2023-06-22T04:01:18;7.22;;;3.75;;
42590;SDS011;28218;53.342;-6.216;2023-06-22T04:03:46;5.57;;;3.90;;
42590;SDS011;28218;53.342;-6.216;2023-06-22T04:06:16;6.53;;;3.80;;
42590;SDS011;28218;53.342;-6.216;2023-06-22T04:08:45;8.98;;;4.20;;
42590;SDS011;28218;53.342;-6.216;2023-06-22T04:11:18;5.00;;;4.10;;
42590;SDS011;28218;53.342;-6.216;2023-06-22T04:13:47;7.43;;;4.00;;
42590;SDS011;28218;53.342;-6.216;2023-06-22T04:16:18;6.47;;;4.63;;
42590;SDS011;28218;53.342;-6.216;2023-06-22T04:18:46;5.60;;;3.88;;
42590;SDS011;28218;53.342;-6.216;2023-06-22T04:21:14;7.85;;;4.93;;
42590;SDS011;28218;53.342;-6.216;2023-06-22T04:23:42;8.50;;;5.03;;
42590;SDS011;28218;53.342;-6.216;2023-06-22T04:26:12;6.20;;;3.92;;
42590;SDS011;28218;53.342;-6.216;2023-06-22T04:28:43;7.85;;;4.55;;
42590;SDS011;28218;53.342;-6.216;2023-06-22T04:31:18;6.93;;;4.22;;
42590;SDS011;28218;53.342;-6.216;2023-06-22T04:33:46;6.45;;;4.15;;
42590;SDS011;28218;53.342;-6.216;2023-06-22T04:36:14;5.13;;;3.95;;
42590;SDS011;28218;53.342;-6.216;2023-06-22T04:38:43;6.97;;;3.70;;
42590;SDS011;28218;53.342;-6.216;2023-06-22T04:41:11;6.65;;;4.05;;
42590;SDS011;28218;53.342;-6.216;2023-06-22T04:43:52;7.60;;;3.95;;
42590;SDS011;28218;53.342;-6.216;2023-06-22T04:46:24;4.80;;;3.70;;
42590;SDS011;28218;53.342;-6.216;2023-06-22T04:48:52;6.43;;;4.13;;
42590;SDS011;28218;53.342;-6.216;2023-06-22T04:51:20;12.13;;;5.30;;
42590;SDS011;28218;53.342;-6.216;2023-06-22T04:53:49;11.45;;;6.57;;
42590;SDS011;28218;53.342;-6.216;2023-06-22T04:56:17;12.20;;;6.55;;
42590;SDS011;28218;53.342;-6.216;2023-06-22T04:58:48;13.20;;;6.40;;
42590;SDS011;28218;53.342;-6.216;2023-06-22T05:01:19;10.75;;;6.88;;
42590;SDS011;28218;53.342;-6.216;2023-06-22T05:03:48;14.52;;;6.45;;
42590;SDS011;28218;53.342;-6.216;2023-06-22T05:06:17;12.43;;;7.15;;
42590;SDS011;28218;53.342;-6.216;2023-06-22T05:08:45;14.20;;;7.10;;
42590;SDS011;28218;53.342;-6.216;2023-06-22T05:11:13;12.75;;;7.80;;
42590;SDS011;28218;53.342;-6.216;2023-06-22T05:13:41;18.70;;;7.97;;
42590;SDS011;28218;53.342;-6.216;2023-06-22T05:16:10;17.27;;;8.73;;
42590;SDS011;28218;53.342;-6.216;2023-06-22T05:18:39;12.13;;;8.50;;
42590;SDS011;28218;53.342;-6.216;2023-06-22T05:21:08;14.20;;;7.43;;
42590;SDS011;28218;53.342;-6.216;2023-06-22T05:23:36;15.07;;;7.25;;
42590;SDS011;28218;53.342;-6.216;2023-06-22T05:26:05;16.30;;;6.47;;
42590;SDS011;28218;53.342;-6.216;2023-06-22T05:28:36;17.00;;;7.88;;
42590;SDS011;28218;53.342;-6.216;2023-06-22T05:31:04;10.63;;;7.25;;
42590;SDS011;28218;53.342;-6.216;2023-06-22T05:33:32;8.38;;;5.85;;
42590;SDS011;28218;53.342;-6.216;2023-06-22T05:36:02;9.68;;;6.22;;
42590;SDS011;28218;53.342;-6.216;2023-06-22T05:38:30;9.10;;;5.40;;
42590;SDS011;28218;53.342;-6.216;2023-06-22T05:40:59;13.43;;;5.32;;
42590;SDS011;28218;53.342;-6.216;2023-06-22T05:43:28;11.55;;;5.53;;
42590;SDS011;28218;53.342;-6.216;2023-06-22T05:45:56;9.32;;;5.57;;
42590;SDS011;28218;53.342;-6.216;2023-06-22T05:48:25;10.32;;;5.88;;
42590;SDS011;28218;53.342;-6.216;2023-06-22T05:50:53;9.80;;;5.50;;
42590;SDS011;28218;53.342;-6.216;2023-06-22T05:53:23;10.50;;;5.20;;
42590;SDS011;28218;53.342;-6.216;2023-06-22T05:55:51;6.90;;;4.78;;
42590;SDS011;28218;53.342;-6.216;2023-06-22T05:58:20;8.65;;;5.70;;
42590;SDS011;28218;53.342;-6.216;2023-06-22T06:00:48;9.18;;;5.50;;
42590;SDS011;28218;53.342;-6.216;2023-06-22T06:03:16;13.30;;;5.75;;
42590;SDS011;28218;53.342;-6.216;2023-06-22T06:05:44;8.60;;;5.03;;
42590;SDS011;28218;53.342;-6.216;2023-06-22T06:08:13;9.02;;;4.78;;
42590;SDS011;28218;53.342;-6.216;2023-06-22T06:10:43;9.43;;;5.35;;
42590;SDS011;28218;53.342;-6.216;2023-06-22T06:13:11;10.93;;;5.35;;
42590;SDS011;28218;53.342;-6.216;2023-06-22T06:15:39;16.17;;;5.53;;
42590;SDS011;28218;53.342;-6.216;2023-06-22T06:18:08;8.63;;;4.97;;
42590;SDS011;28218;53.342;-6.216;2023-06-22T06:20:36;8.10;;;4.88;;
42590;SDS011;28218;53.342;-6.216;2023-06-22T06:23:04;7.38;;;5.22;;
42590;SDS011;28218;53.342;-6.216;2023-06-22T06:25:32;10.05;;;5.45;;
42590;SDS011;28218;53.342;-6.216;2023-06-22T06:28:02;9.77;;;5.28;;
42590;SDS011;28218;53.342;-6.216;2023-06-22T06:30:31;9.38;;;4.97;;
42590;SDS011;28218;53.342;-6.216;2023-06-22T06:33:00;8.93;;;4.82;;
42590;SDS011;28218;53.342;-6.216;2023-06-22T06:35:28;8.40;;;4.93;;
42590;SDS011;28218;53.342;-6.216;2023-06-22T06:37:57;11.35;;;5.20;;
42590;SDS011;28218;53.342;-6.216;2023-06-22T06:40:25;9.25;;;4.90;;
42590;SDS011;28218;53.342;-6.216;2023-06-22T06:42:54;11.13;;;6.07;;
42590;SDS011;28218;53.342;-6.216;2023-06-22T06:45:24;7.03;;;5.07;;
42590;SDS011;28218;53.342;-6.216;2023-06-22T06:47:55;8.15;;;4.80;;
42590;SDS011;28218;53.342;-6.216;2023-06-22T06:50:23;10.90;;;4.93;;
42590;SDS011;28218;53.342;-6.216;2023-06-22T06:52:51;10.13;;;4.57;;
42590;SDS011;28218;53.342;-6.216;2023-06-22T06:55:20;7.97;;;4.30;;
42590;SDS011;28218;53.342;-6.216;2023-06-22T06:57:50;7.55;;;5.15;;
42590;SDS011;28218;53.342;-6.216;2023-06-22T07:00:19;8.02;;;4.28;;
42590;SDS011;28218;53.342;-6.216;2023-06-22T07:02:50;8.60;;;5.00;;
42590;SDS011;28218;53.342;-6.216;2023-06-22T07:05:18;7.30;;;4.25;;
42590;SDS011;28218;53.342;-6.216;2023-06-22T07:07:46;10.88;;;5.25;;
42590;SDS011;28218;53.342;-6.216;2023-06-22T07:10:15;10.32;;;4.15;;
42590;SDS011;28218;53.342;-6.216;2023-06-22T07:12:43;6.32;;;3.47;;
42590;SDS011;28218;53.342;-6.216;2023-06-22T07:15:12;8.93;;;4.47;;
42590;SDS011;28218;53.342;-6.216;2023-06-22T07:17:41;8.05;;;4.32;;
42590;SDS011;28218;53.342;-6.216;2023-06-22T07:20:12;7.68;;;4.75;;
42590;SDS011;28218;53.342;-6.216;2023-06-22T07:22:40;7.55;;;3.67;;
42590;SDS011;28218;53.342;-6.216;2023-06-22T07:25:11;12.98;;;4.50;;
42590;SDS011;28218;53.342;-6.216;2023-06-22T07:27:45;6.53;;;3.63;;
42590;SDS011;28218;53.342;-6.216;2023-06-22T07:30:24;5.00;;;3.75;;
42590;SDS011;28218;53.342;-6.216;2023-06-22T07:32:52;7.10;;;3.92;;
42590;SDS011;28218;53.342;-6.216;2023-06-22T07:35:22;11.88;;;4.22;;
42590;SDS011;28218;53.342;-6.216;2023-06-22T07:37:51;14.73;;;6.15;;
42590;SDS011;28218;53.342;-6.216;2023-06-22T07:40:19;4.38;;;3.60;;
42590;SDS011;28218;53.342;-6.216;2023-06-22T07:42:48;6.88;;;3.78;;
42590;SDS011;28218;53.342;-6.216;2023-06-22T07:45:18;16.27;;;4.10;;
42590;SDS011;28218;53.342;-6.216;2023-06-22T07:47:46;5.82;;;3.33;;
42590;SDS011;28218;53.342;-6.216;2023-06-22T07:50:15;6.60;;;3.63;;
42590;SDS011;28218;53.342;-6.216;2023-06-22T07:52:44;8.73;;;4.30;;
42590;SDS011;28218;53.342;-6.216;2023-06-22T07:55:14;5.80;;;3.80;;
42590;SDS011;28218;53.342;-6.216;2023-06-22T07:57:42;9.25;;;3.20;;
42590;SDS011;28218;53.342;-6.216;2023-06-22T08:00:10;4.60;;;3.67;;
42590;SDS011;28218;53.342;-6.216;2023-06-22T08:02:42;8.90;;;4.95;;
42590;SDS011;28218;53.342;-6.216;2023-06-22T08:05:13;6.03;;;3.28;;
42590;SDS011;28218;53.342;-6.216;2023-06-22T08:07:49;5.88;;;3.92;;
42590;SDS011;28218;53.342;-6.216;2023-06-22T08:10:18;5.70;;;3.83;;
42590;SDS011;28218;53.342;-6.216;2023-06-22T08:12:47;11.77;;;3.85;;
42590;SDS011;28218;53.342;-6.216;2023-06-22T08:15:15;5.53;;;3.40;;
42590;SDS011;28218;53.342;-6.216;2023-06-22T08:17:43;6.18;;;4.60;;
42590;SDS011;28218;53.342;-6.216;2023-06-22T08:20:12;8.90;;;4.20;;
42590;SDS011;28218;53.342;-6.216;2023-06-22T08:22:41;5.82;;;4.00;;
42590;SDS011;28218;53.342;-6.216;2023-06-22T08:25:11;6.35;;;3.70;;
42590;SDS011;28218;53.342;-6.216;2023-06-22T08:27:44;6.78;;;3.55;;
42590;SDS011;28218;53.342;-6.216;2023-06-22T08:30:13;4.57;;;3.45;;
42590;SDS011;28218;53.342;-6.216;2023-06-22T08:32:42;8.45;;;4.55;;
42590;SDS011;28218;53.342;-6.216;2023-06-22T08:35:10;8.38;;;4.43;;
42590;SDS011;28218;53.342;-6.216;2023-06-22T08:37:41;10.20;;;4.70;;
42590;SDS011;28218;53.342;-6.216;2023-06-22T08:40:10;6.70;;;4.53;;
42590;SDS011;28218;53.342;-6.216;2023-06-22T08:42:40;4.55;;;3.95;;
42590;SDS011;28218;53.342;-6.216;2023-06-22T08:45:18;6.13;;;4.57;;
42590;SDS011;28218;53.342;-6.216;2023-06-22T08:47:47;8.50;;;4.50;;
42590;SDS011;28218;53.342;-6.216;2023-06-22T08:50:15;7.82;;;3.95;;
42590;SDS011;28218;53.342;-6.216;2023-06-22T08:52:43;7.32;;;4.28;;
42590;SDS011;28218;53.342;-6.216;2023-06-22T08:55:13;5.35;;;4.30;;
42590;SDS011;28218;53.342;-6.216;2023-06-22T08:57:42;4.63;;;3.80;;
42590;SDS011;28218;53.342;-6.216;2023-06-22T09:00:10;6.50;;;4.25;;
42590;SDS011;28218;53.342;-6.216;2023-06-22T09:02:44;6.95;;;4.05;;
42590;SDS011;28218;53.342;-6.216;2023-06-22T09:05:13;7.60;;;4.40;;
42590;SDS011;28218;53.342;-6.216;2023-06-22T09:07:42;9.00;;;3.97;;
42590;SDS011;28218;53.342;-6.216;2023-06-22T09:10:11;8.68;;;4.90;;
42590;SDS011;28218;53.342;-6.216;2023-06-22T09:12:40;4.60;;;4.13;;
42590;SDS011;28218;53.342;-6.216;2023-06-22T09:15:12;6.68;;;3.92;;
42590;SDS011;28218;53.342;-6.216;2023-06-22T09:17:43;7.50;;;3.65;;
42590;SDS011;28218;53.342;-6.216;2023-06-22T09:20:13;8.77;;;4.13;;
42590;SDS011;28218;53.342;-6.216;2023-06-22T09:22:42;6.32;;;3.58;;
42590;SDS011;28218;53.342;-6.216;2023-06-22T09:25:10;7.07;;;3.58;;
42590;SDS011;28218;53.342;-6.216;2023-06-22T09:27:40;16.85;;;3.72;;
42590;SDS011;28218;53.342;-6.216;2023-06-22T09:30:08;7.57;;;4.50;;
42590;SDS011;28218;53.342;-6.216;2023-06-22T09:32:37;5.95;;;3.97;;
42590;SDS011;28218;53.342;-6.216;2023-06-22T09:35:06;13.05;;;3.75;;
42590;SDS011;28218;53.342;-6.216;2023-06-22T09:37:36;3.38;;;3.05;;
42590;SDS011;28218;53.342;-6.216;2023-06-22T09:40:05;8.63;;;4.20;;
42590;SDS011;28218;53.342;-6.216;2023-06-22T09:42:37;8.38;;;4.93;;
42590;SDS011;28218;53.342;-6.216;2023-06-22T09:45:08;7.47;;;6.03;;
42590;SDS011;28218;53.342;-6.216;2023-06-22T09:47:37;7.00;;;3.50;;
42590;SDS011;28218;53.342;-6.216;2023-06-22T09:50:05;5.05;;;2.75;;
42590;SDS011;28218;53.342;-6.216;2023-06-22T09:52:35;6.40;;;2.58;;
42590;SDS011;28218;53.342;-6.216;2023-06-22T09:55:06;4.93;;;2.80;;
42590;SDS011;28218;53.342;-6.216;2023-06-22T09:57:35;5.90;;;3.17;;
42590;SDS011;28218;53.342;-6.216;2023-06-22T10:00:04;7.53;;;3.05;;
42590;SDS011;28218;53.342;-6.216;2023-06-22T10:02:39;8.45;;;2.97;;
42590;SDS011;28218;53.342;-6.216;2023-06-22T10:05:09;8.73;;;3.20;;
42590;SDS011;28218;53.342;-6.216;2023-06-22T10:07:38;4.38;;;2.30;;
42590;SDS011;28218;53.342;-6.216;2023-06-22T10:10:10;6.18;;;2.75;;
42590;SDS011;28218;53.342;-6.216;2023-06-22T10:12:41;5.53;;;2.75;;
42590;SDS011;28218;53.342;-6.216;2023-06-22T10:15:10;9.05;;;2.97;;
42590;SDS011;28218;53.342;-6.216;2023-06-22T10:17:40;5.75;;;2.78;;
42590;SDS011;28218;53.342;-6.216;2023-06-22T10:20:09;5.05;;;2.85;;
42590;SDS011;28218;53.342;-6.216;2023-06-22T10:22:41;5.32;;;2.75;;
42590;SDS011;28218;53.342;-6.216;2023-06-22T10:25:10;5.32;;;3.00;;
42590;SDS011;28218;53.342;-6.216;2023-06-22T10:27:40;11.93;;;2.95;;
42590;SDS011;28218;53.342;-6.216;2023-06-22T10:30:09;5.45;;;2.50;;
42590;SDS011;28218;53.342;-6.216;2023-06-22T10:32:41;6.10;;;3.58;;
42590;SDS011;28218;53.342;-6.216;2023-06-22T10:35:10;8.93;;;3.38;;
42590;SDS011;28218;53.342;-6.216;2023-06-22T10:37:52;10.75;;;3.53;;
42590;SDS011;28218;53.342;-6.216;2023-06-22T10:40:21;6.93;;;3.95;;
42590;SDS011;28218;53.342;-6.216;2023-06-22T10:42:49;5.47;;;3.25;;
42590;SDS011;28218;53.342;-6.216;2023-06-22T10:45:17;10.38;;;4.32;;
42590;SDS011;28218;53.342;-6.216;2023-06-22T10:47:47;7.63;;;3.05;;
42590;SDS011;28218;53.342;-6.216;2023-06-22T10:50:15;6.88;;;4.20;;
42590;SDS011;28218;53.342;-6.216;2023-06-22T10:52:44;11.88;;;4.72;;
42590;SDS011;28218;53.342;-6.216;2023-06-22T10:55:12;10.52;;;4.65;;
42590;SDS011;28218;53.342;-6.216;2023-06-22T10:57:40;13.77;;;4.82;;
42590;SDS011;28218;53.342;-6.216;2023-06-22T11:00:11;10.35;;;4.82;;
42590;SDS011;28218;53.342;-6.216;2023-06-22T11:02:40;7.18;;;2.65;;
42590;SDS011;28218;53.342;-6.216;2023-06-22T11:05:11;4.45;;;3.03;;
42590;SDS011;28218;53.342;-6.216;2023-06-22T11:07:41;8.65;;;3.10;;
42590;SDS011;28218;53.342;-6.216;2023-06-22T11:10:15;7.93;;;3.30;;
42590;SDS011;28218;53.342;-6.216;2023-06-22T11:12:43;11.00;;;3.38;;
42590;SDS011;28218;53.342;-6.216;2023-06-22T11:15:11;5.38;;;3.00;;
42590;SDS011;28218;53.342;-6.216;2023-06-22T11:17:40;10.85;;;3.95;;
42590;SDS011;28218;53.342;-6.216;2023-06-22T11:20:09;3.97;;;2.55;;
42590;SDS011;28218;53.342;-6.216;2023-06-22T11:22:39;5.32;;;3.17;;
42590;SDS011;28218;53.342;-6.216;2023-06-22T11:25:08;7.43;;;2.70;;
42590;SDS011;28218;53.342;-6.216;2023-06-22T11:27:38;7.43;;;2.58;;
42590;SDS011;28218;53.342;-6.216;2023-06-22T11:30:07;5.15;;;2.90;;
42590;SDS011;28218;53.342;-6.216;2023-06-22T11:32:36;4.13;;;3.17;;
42590;SDS011;28218;53.342;-6.216;2023-06-22T11:35:04;5.90;;;2.80;;
42590;SDS011;28218;53.342;-6.216;2023-06-22T11:37:35;6.55;;;3.25;;
42590;SDS011;28218;53.342;-6.216;2023-06-22T11:40:03;5.60;;;2.80;;
42590;SDS011;28218;53.342;-6.216;2023-06-22T11:42:35;7.05;;;3.25;;
42590;SDS011;28218;53.342;-6.216;2023-06-22T11:45:04;9.38;;;3.60;;
42590;SDS011;28218;53.342;-6.216;2023-06-22T11:47:35;7.32;;;3.33;;
42590;SDS011;28218;53.342;-6.216;2023-06-22T11:50:04;12.23;;;4.18;;
42590;SDS011;28218;53.342;-6.216;2023-06-22T11:52:35;4.90;;;3.00;;
42590;SDS011;28218;53.342;-6.216;2023-06-22T11:55:04;10.48;;;4.65;;
42590;SDS011;28218;53.342;-6.216;2023-06-22T11:57:33;7.95;;;4.07;;
42590;SDS011;28218;53.342;-6.216;2023-06-22T12:00:03;5.60;;;3.47;;
42590;SDS011;28218;53.342;-6.216;2023-06-22T12:02:43;7.03;;;4.45;;
42590;SDS011;28218;53.342;-6.216;2023-06-22T12:05:11;4.22;;;3.83;;
42590;SDS011;28218;53.342;-6.216;2023-06-22T12:07:41;4.70;;;3.72;;
42590;SDS011;28218;53.342;-6.216;2023-06-22T12:10:10;6.30;;;3.88;;
42590;SDS011;28218;53.342;-6.216;2023-06-22T12:12:39;4.97;;;3.40;;
42590;SDS011;28218;53.342;-6.216;2023-06-22T12:15:08;8.07;;;4.07;;
42590;SDS011;28218;53.342;-6.216;2023-06-22T12:17:38;6.75;;;4.25;;
42590;SDS011;28218;53.342;-6.216;2023-06-22T12:20:07;5.82;;;3.90;;
42590;SDS011;28218;53.342;-6.216;2023-06-22T12:22:35;5.07;;;3.75;;
42590;SDS011;28218;53.342;-6.216;2023-06-22T12:25:07;8.30;;;3.90;;
42590;SDS011;28218;53.342;-6.216;2023-06-22T12:27:35;7.18;;;4.57;;
42590;SDS011;28218;53.342;-6.216;2023-06-22T12:30:04;5.35;;;4.25;;
42590;SDS011;28218;53.342;-6.216;2023-06-22T12:32:33;7.05;;;4.50;;
42590;SDS011;28218;53.342;-6.216;2023-06-22T12:35:02;8.35;;;4.07;;
42590;SDS011;28218;53.342;-6.216;2023-06-22T12:37:30;8.80;;;3.70;;
42590;SDS011;28218;53.342;-6.216;2023-06-22T12:40:00;8.32;;;4.05;;
42590;SDS011;28218;53.342;-6.216;2023-06-22T12:42:31;5.97;;;4.78;;
42590;SDS011;28218;53.342;-6.216;2023-06-22T12:44:59;7.15;;;3.78;;
42590;SDS011;28218;53.342;-6.216;2023-06-22T12:47:28;4.25;;;3.50;;
42590;SDS011;28218;53.342;-6.216;2023-06-22T12:49:56;7.43;;;3.67;;
42590;SDS011;28218;53.342;-6.216;2023-06-22T12:52:24;3.95;;;2.72;;
42590;SDS011;28218;53.342;-6.216;2023-06-22T12:54:53;4.75;;;3.85;;
42590;SDS011;28218;53.342;-6.216;2023-06-22T12:57:21;8.00;;;3.53;;
42590;SDS011;28218;53.342;-6.216;2023-06-22T12:59:51;4.05;;;2.50;;
42590;SDS011;28218;53.342;-6.216;2023-06-22T13:02:19;10.23;;;4.50;;
42590;SDS011;28218;53.342;-6.216;2023-06-22T13:04:48;7.18;;;3.67;;
42590;SDS011;28218;53.342;-6.216;2023-06-22T13:07:16;8.80;;;3.53;;
42590;SDS011;28218;53.342;-6.216;2023-06-22T13:09:49;6.70;;;3.97;;
42590;SDS011;28218;53.342;-6.216;2023-06-22T13:12:19;10.07;;;5.18;;
42590;SDS011;28218;53.342;-6.216;2023-06-22T13:14:48;6.65;;;5.18;;
42590;SDS011;28218;53.342;-6.216;2023-06-22T13:17:18;11.73;;;4.90;;
42590;SDS011;28218;53.342;-6.216;2023-06-22T13:19:47;11.88;;;4.75;;
42590;SDS011;28218;53.342;-6.216;2023-06-22T13:22:26;10.18;;;5.28;;
42590;SDS011;28218;53.342;-6.216;2023-06-22T13:24:55;14.98;;;4.30;;
42590;SDS011;28218;53.342;-6.216;2023-06-22T13:27:24;11.10;;;4.50;;
42590;SDS011;28218;53.342;-6.216;2023-06-22T13:29:53;11.60;;;4.95;;
42590;SDS011;28218;53.342;-6.216;2023-06-22T13:32:22;8.88;;;5.50;;
42590;SDS011;28218;53.342;-6.216;2023-06-22T13:34:52;7.70;;;4.78;;
42590;SDS011;28218;53.342;-6.216;2023-06-22T13:37:20;5.38;;;4.20;;
42590;SDS011;28218;53.342;-6.216;2023-06-22T13:39:48;8.00;;;5.20;;
42590;SDS011;28218;53.342;-6.216;2023-06-22T13:42:17;7.55;;;5.80;;
42590;SDS011;28218;53.342;-6.216;2023-06-22T13:44:45;9.50;;;5.45;;
42590;SDS011;28218;53.342;-6.216;2023-06-22T13:47:14;10.85;;;6.25;;
42590;SDS011;28218;53.342;-6.216;2023-06-22T13:49:43;12.43;;;6.32;;
42590;SDS011;28218;53.342;-6.216;2023-06-22T13:52:11;13.38;;;6.15;;
42590;SDS011;28218;53.342;-6.216;2023-06-22T13:54:40;12.52;;;5.00;;
42590;SDS011;28218;53.342;-6.216;2023-06-22T13:57:08;10.50;;;5.85;;
42590;SDS011;28218;53.342;-6.216;2023-06-22T13:59:36;15.35;;;7.60;;
42590;SDS011;28218;53.342;-6.216;2023-06-22T14:02:04;14.27;;;6.75;;
42590;SDS011;28218;53.342;-6.216;2023-06-22T14:04:33;8.05;;;5.32;;
42590;SDS011;28218;53.342;-6.216;2023-06-22T14:07:03;7.47;;;5.70;;
42590;SDS011;28218;53.342;-6.216;2023-06-22T14:09:32;12.23;;;5.53;;
42590;SDS011;28218;53.342;-6.216;2023-06-22T14:12:02;6.20;;;4.70;;
42590;SDS011;28218;53.342;-6.216;2023-06-22T14:14:32;6.80;;;4.75;;
42590;SDS011;28218;53.342;-6.216;2023-06-22T14:17:01;6.30;;;3.47;;
42590;SDS011;28218;53.342;-6.216;2023-06-22T14:19:29;4.93;;;4.30;;
42590;SDS011;28218;53.342;-6.216;2023-06-22T14:21:58;5.63;;;4.00;;
42590;SDS011;28218;53.342;-6.216;2023-06-22T14:24:27;4.93;;;4.22;;
42590;SDS011;28218;53.342;-6.216;2023-06-22T14:26:56;11.10;;;4.03;;
42590;SDS011;28218;53.342;-6.216;2023-06-22T14:29:25;4.78;;;3.35;;
42590;SDS011;28218;53.342;-6.216;2023-06-22T14:31:54;3.75;;;3.00;;
42590;SDS011;28218;53.342;-6.216;2023-06-22T14:34:22;6.35;;;2.90;;
42590;SDS011;28218;53.342;-6.216;2023-06-22T14:36:50;7.03;;;3.00;;
42590;SDS011;28218;53.342;-6.216;2023-06-22T14:39:19;5.57;;;3.35;;
42590;SDS011;28218;53.342;-6.216;2023-06-22T14:41:49;6.50;;;4.20;;
42590;SDS011;28218;53.342;-6.216;2023-06-22T14:44:17;7.57;;;3.20;;